Terminal Aerodrome Forecast
Issued by NWS

Home | Current Version | Previous Version | Text Only | Print | Product List | Glossary On
Versions: 1 2 3 4 5 6 7 8 9 10 11 12 13 14
873
FTUS46 KMTR 171725
TAFOAK
TAF
KOAK 171725Z 1718/1824 03005KT P6SM SKC WS020/01035KT
     FM172100 33005KT P6SM SKC WS020/36025KT
     FM180300 34005KT P6SM SKC
     FM180900 VRB04KT P6SM SKC
     FM182100 33005KT P6SM SKC=

USA.gov is the U.S. government's official web portal to all federal, state and local government web resources and services.